Time;durP1;ratioP1;P1;durP2;ratioP2;P2;SDS_P1;SDS_P2;PMS_P1;PMS_P2;Temp;Humidity;BMP_temperature;BMP_pressure;BME280_temperature;BME280_humidity;BME280_pressure;Samples;Min_cycle;Max_cycle;Signal;HPM_P1;HPM_P2
2022/09/22 00:01:28;;;;;;;13.82;7.53;;;11.40;99.90;;;;;;5054228;28;20033;-75
2022/09/22 00:04:03;;;;;;;12.70;6.90;;;11.30;99.90;;;;;;5037702;28;20041;-74
2022/09/22 00:06:34;;;;;;;11.02;7.70;;;11.30;99.90;;;;;;5004898;28;20056;-74
2022/09/22 00:09:02;;;;;;;15.95;7.53;;;;;;;;;;5053546;28;20379;-75
2022/09/22 00:11:34;;;;;;;15.30;7.30;;;11.30;99.90;;;;;;5054726;28;20049;-75
2022/09/22 00:14:19;;;;;;;14.95;8.10;;;11.20;99.90;;;;;;5054005;28;20478;-74
2022/09/22 00:16:54;;;;;;;13.40;8.00;;;11.20;99.90;;;;;;5054727;28;20045;-74
2022/09/22 00:19:28;;;;;;;10.90;7.43;;;11.10;99.90;;;;;;5037021;28;20052;-74
2022/09/22 00:21:56;;;;;;;16.15;7.55;;;11.10;99.90;;;;;;5053326;28;20060;-75
2022/09/22 00:24:25;;;;;;;12.85;7.40;;;11.10;99.90;;;;;;5055119;28;20041;-74
2022/09/22 00:26:56;;;;;;;12.68;7.35;;;11.00;99.90;;;;;;5036886;28;20048;-74
2022/09/22 00:29:26;;;;;;;10.93;7.20;;;10.90;99.90;;;;;;5035848;28;20155;-75
2022/09/22 00:31:56;;;;;;;14.65;7.50;;;10.90;99.90;;;;;;5057137;28;20044;-75
2022/09/22 00:34:25;;;;;;;13.00;7.53;;;10.90;99.90;;;;;;5057435;28;20056;-75
2022/09/22 00:36:53;;;;;;;11.70;7.70;;;10.80;99.90;;;;;;5058302;28;20108;-74
2022/09/22 00:39:21;;;;;;;12.85;8.02;;;10.80;99.90;;;;;;5040825;28;20056;-74
2022/09/22 00:41:50;;;;;;;11.50;6.60;;;10.70;99.90;;;;;;5039902;28;20049;-74
2022/09/22 00:44:33;;;;;;;10.35;7.28;;;11.30;99.90;;;;;;5040949;28;20049;-75
2022/09/22 00:47:04;;;;;;;18.40;7.53;;;10.70;99.90;;;;;;5058857;28;20059;-75
2022/09/22 00:49:35;;;;;;;13.30;7.38;;;10.60;99.90;;;;;;5058683;28;20049;-74
2022/09/22 00:52:03;;;;;;;11.95;7.60;;;10.60;99.90;;;;;;5041068;28;20483;-75
2022/09/22 00:54:31;;;;;;;14.52;7.97;;;10.60;99.90;;;;;;5039532;28;20061;-74
2022/09/22 00:57:08;;;;;;;11.38;6.68;;;10.60;99.90;;;;;;5058163;28;20045;-74
2022/09/22 00:59:36;;;;;;;13.13;6.93;;;10.50;99.90;;;;;;5057895;28;20049;-74
2022/09/22 01:02:04;;;;;;;14.93;7.10;;;10.50;99.90;;;;;;5023173;28;20056;-74
2022/09/22 01:04:32;;;;;;;14.77;8.00;;;11.30;99.90;;;;;;5058133;28;20375;-74
2022/09/22 01:07:01;;;;;;;12.60;7.90;;;10.50;99.90;;;;;;5058110;28;20455;-74
2022/09/22 01:09:31;;;;;;;18.00;7.78;;;10.40;99.90;;;;;;5056934;28;20045;-75
2022/09/22 01:12:04;;;;;;;16.08;7.43;;;10.30;99.90;;;;;;5057645;28;20072;-74
2022/09/22 01:14:45;;;;;;;11.95;7.30;;;10.40;99.90;;;;;;5057203;28;20068;-74
2022/09/22 01:17:56;;;;;;;15.95;7.30;;;10.40;99.90;;;;;;5058004;28;20372;-75
2022/09/22 01:20:50;;;;;;;12.57;7.28;;;10.40;99.90;;;;;;5040888;28;20045;-74
2022/09/22 01:23:35;;;;;;;17.73;7.18;;;10.30;99.90;;;;;;5022971;28;20049;-74
2022/09/22 01:26:47;;;;;;;12.05;6.82;;;10.40;99.90;;;;;;5057783;28;20376;-75
2022/09/22 01:29:33;;;;;;;12.15;6.82;;;10.30;99.90;;;;;;5038794;28;20044;-74
2022/09/22 01:32:22;;;;;;;12.13;7.30;;;10.30;99.90;;;;;;5057585;28;20056;-74
2022/09/22 01:35:22;;;;;;;10.88;6.68;;;10.20;99.90;;;;;;5056152;28;20052;-74
2022/09/22 01:37:57;;;;;;;13.70;7.18;;;10.20;99.90;;;;;;5039935;28;20060;-74
2022/09/22 01:40:41;;;;;;;17.55;7.05;;;10.20;99.90;;;;;;5056923;28;20041;-74
2022/09/22 01:43:20;;;;;;;12.52;7.38;;;10.20;99.90;;;;;;5055958;28;20056;-74
2022/09/22 01:45:50;;;;;;;9.75;6.65;;;9.80;99.90;;;;;;5057060;28;20041;-74
2022/09/22 01:48:29;;;;;;;12.52;7.70;;;10.20;99.90;;;;;;5056058;28;20044;-75
2022/09/22 01:51:03;;;;;;;10.77;7.35;;;10.10;99.90;;;;;;5040003;28;20053;-74
2022/09/22 01:53:47;;;;;;;14.82;7.65;;;10.10;99.90;;;;;;5039189;28;20072;-75
2022/09/22 01:56:19;;;;;;;14.38;7.43;;;10.10;99.90;;;;;;5057022;28;20048;-75
2022/09/22 01:58:54;;;;;;;14.57;7.57;;;10.00;99.90;;;;;;5039741;28;20057;-74
2022/09/22 02:01:27;;;;;;;11.60;7.57;;;10.00;99.90;;;;;;5038474;28;20049;-74
2022/09/22 02:04:05;;;;;;;15.57;7.57;;;10.00;99.90;;;;;;5039580;28;20049;-74
2022/09/22 02:06:42;;;;;;;13.30;7.97;;;10.00;99.90;;;;;;5039673;28;20071;-74
2022/09/22 02:09:14;;;;;;;15.47;8.83;;;9.90;99.90;;;;;;5038264;28;20041;-74
2022/09/22 02:11:42;;;;;;;13.77;8.30;;;9.90;99.90;;;;;;5039544;28;20060;-74
2022/09/22 02:14:11;;;;;;;13.65;8.32;;;11.60;99.90;;;;;;5055520;28;20057;-74
2022/09/22 02:16:38;;;;;;;18.80;8.77;;;9.90;99.90;;;;;;5039530;28;20048;-74
2022/09/22 02:19:23;;;;;;;16.98;8.88;;;10.30;99.90;;;;;;5056615;28;20379;-73
2022/09/22 02:21:50;;;;;;;16.20;9.10;;;9.80;99.90;;;;;;5055795;28;20068;-74
2022/09/22 02:24:31;;;;;;;15.52;9.48;;;9.80;99.90;;;;;;5056800;28;20483;-74
2022/09/22 02:27:19;;;;;;;15.05;9.23;;;9.80;99.90;;;;;;5056663;28;20049;-74
2022/09/22 02:29:56;;;;;;;16.05;8.98;;;11.80;99.90;;;;;;5039286;28;20045;-74
2022/09/22 02:32:24;;;;;;;14.60;8.48;;;9.80;99.90;;;;;;5039281;28;20037;-74
2022/09/22 02:34:54;;;;;;;16.02;9.05;;;9.70;99.90;;;;;;5037910;28;20048;-74
2022/09/22 02:37:41;;;;;;;13.77;8.95;;;9.70;99.90;;;;;;5056267;28;20459;-74
2022/09/22 02:40:31;;;;;;;14.80;8.70;;;9.70;99.90;;;;;;5056491;28;20475;-74
2022/09/22 02:43:20;;;;;;;16.30;9.23;;;9.70;99.90;;;;;;5056007;28;20049;-74
2022/09/22 02:45:59;;;;;;;13.55;9.20;;;9.60;99.90;;;;;;5038645;28;20368;-74
2022/09/22 02:48:35;;;;;;;14.63;9.40;;;9.60;99.90;;;;;;5037613;28;20041;-74
2022/09/22 02:51:03;;;;;;;14.10;8.95;;;9.60;99.90;;;;;;5056266;28;20053;-74
2022/09/22 02:53:33;;;;;;;;;;;9.60;99.90;;;;;;5038628;28;20057;-74
2022/09/22 02:56:02;;;;;;;20.23;9.27;;;9.60;99.90;;;;;;5054791;28;20362;-74
2022/09/22 02:58:29;;;;;;;16.60;9.55;;;9.60;99.90;;;;;;5038132;28;20069;-74
2022/09/22 03:00:58;;;;;;;15.98;9.63;;;10.50;99.90;;;;;;5021151;28;20041;-74
2022/09/22 03:03:25;;;;;;;20.35;9.57;;;9.50;99.90;;;;;;5055608;28;20056;-74
2022/09/22 03:05:53;;;;;;;15.02;9.05;;;9.50;99.90;;;;;;5055019;28;20463;-74
2022/09/22 03:08:20;;;;;;;15.23;9.63;;;9.50;99.90;;;;;;5054486;28;20049;-74
2022/09/22 03:10:48;;;;;;;17.42;9.63;;;9.40;99.90;;;;;;5055648;28;20482;-74
2022/09/22 03:13:15;;;;;;;18.27;9.93;;;9.40;99.90;;;;;;5038190;28;20041;-74
2022/09/22 03:15:45;;;;;;;16.33;9.55;;;9.40;99.90;;;;;;5054274;28;20345;-74
2022/09/22 03:18:13;;;;;;;16.45;8.98;;;9.40;99.90;;;;;;5055556;28;20060;-75
2022/09/22 03:20:41;;;;;;;;;;;9.40;99.90;;;;;;5037321;28;20045;-74
2022/09/22 03:23:09;;;;;;;15.55;9.00;;;9.30;99.90;;;;;;5055198;28;20267;-74
2022/09/22 03:25:36;;;;;;;;;;;9.30;99.90;;;;;;5055635;28;20045;-74
2022/09/22 03:28:04;;;;;;;17.85;9.63;;;9.30;99.90;;;;;;5037194;28;19921;-74
2022/09/22 03:30:31;;;;;;;14.75;9.45;;;11.00;99.90;;;;;;5037880;28;20459;-75
2022/09/22 03:32:59;;;;;;;14.90;9.82;;;9.30;99.90;;;;;;5055033;28;20045;-74
2022/09/22 03:35:26;;;;;;;14.40;9.15;;;9.20;99.90;;;;;;5054029;28;20056;-74
2022/09/22 03:37:54;;;;;;;14.93;9.25;;;9.20;99.90;;;;;;5055663;28;20053;-74
2022/09/22 03:40:22;;;;;;;14.82;9.75;;;9.20;99.90;;;;;;5054949;28;20463;-74
2022/09/22 03:42:50;;;;;;;14.18;8.32;;;9.10;99.90;;;;;;5036900;28;20045;-74
2022/09/22 03:45:17;;;;;;;16.52;9.15;;;9.20;99.90;;;;;;5055097;28;20067;-74
2022/09/22 03:47:45;;;;;;;14.63;8.45;;;9.10;99.90;;;;;;5053939;28;20380;-74
2022/09/22 03:50:13;;;;;;;12.85;8.68;;;10.70;99.90;;;;;;5055026;28;20044;-75
2022/09/22 03:52:42;;;;;;;13.45;8.90;;;9.10;99.90;;;;;;5021510;28;20045;-74
2022/09/22 03:55:11;;;;;;;11.95;8.18;;;9.10;99.90;;;;;;5053910;28;20499;-74
2022/09/22 03:57:39;;;;;;;14.48;8.32;;;9.10;99.90;;;;;;5037659;28;20055;-74
2022/09/22 04:00:07;;;;;;;13.68;7.63;;;9.20;99.90;;;;;;5054921;28;20049;-74
2022/09/22 04:02:42;;;;;;;14.43;7.68;;;9.00;99.90;;;;;;5053465;28;20471;-73
2022/09/22 04:05:10;;;;;;;12.73;7.85;;;9.00;99.90;;;;;;5054808;28;20049;-73
2022/09/22 04:07:38;;;;;;;11.25;7.75;;;9.00;99.90;;;;;;5053684;28;20041;-74
2022/09/22 04:10:06;;;;;;;12.85;7.85;;;9.00;99.90;;;;;;5054981;28;20041;-74
2022/09/22 04:12:34;;;;;;;11.68;7.40;;;9.00;99.90;;;;;;5037365;28;20049;-73
2022/09/22 04:15:01;;;;;;;11.13;7.30;;;8.90;99.90;;;;;;5053600;28;20052;-74
2022/09/22 04:17:29;;;;;;;13.00;7.70;;;8.90;99.90;;;;;;5037258;28;20353;-74
2022/09/22 04:19:56;;;;;;;10.77;7.63;;;8.90;99.90;;;;;;5037269;28;20072;-74
2022/09/22 04:22:24;;;;;;;13.07;7.45;;;8.90;99.90;;;;;;5053298;28;20044;-74
2022/09/22 04:24:51;;;;;;;10.98;7.32;;;8.90;99.90;;;;;;5054692;28;20037;-73
2022/09/22 04:27:19;;;;;;;12.75;7.28;;;10.00;99.90;;;;;;5036224;28;20487;-73
2022/09/22 04:29:48;;;;;;;12.48;6.85;;;8.90;99.90;;;;;;5053486;28;20033;-73
2022/09/22 04:32:17;;;;;;;12.02;7.20;;;8.80;99.90;;;;;;5037309;28;20363;-73
2022/09/22 04:34:44;;;;;;;12.30;7.22;;;8.80;99.90;;;;;;5053564;28;20045;-74
2022/09/22 04:37:12;;;;;;;12.55;7.47;;;8.80;99.90;;;;;;5054295;28;20459;-73
2022/09/22 04:39:40;;;;;;;9.93;6.72;;;8.80;99.90;;;;;;5054371;28;20400;-73
2022/09/22 04:42:07;;;;;;;11.40;6.88;;;10.90;99.90;;;;;;5035621;28;20379;-73
2022/09/22 04:44:35;;;;;;;12.60;7.13;;;9.00;99.90;;;;;;5037531;28;20049;-73
2022/09/22 04:47:03;;;;;;;12.13;6.80;;;8.80;99.90;;;;;;5054588;28;20467;-73
2022/09/22 04:49:31;;;;;;;10.85;6.78;;;8.70;99.90;;;;;;5054450;28;20053;-73
2022/09/22 04:51:58;;;;;;;12.30;6.80;;;9.10;99.90;;;;;;5037063;28;20048;-73
2022/09/22 04:54:26;;;;;;;13.38;6.28;;;8.70;99.90;;;;;;5019380;28;20049;-73
2022/09/22 04:56:53;;;;;;;9.85;6.22;;;10.20;99.90;;;;;;5054274;28;20044;-73
2022/09/22 04:59:21;;;;;;;9.90;6.70;;;8.70;99.90;;;;;;5053278;28;20056;-74
2022/09/22 05:01:48;;;;;;;12.00;6.90;;;8.80;99.90;;;;;;5052918;28;20049;-74
2022/09/22 05:04:16;;;;;;;10.00;6.38;;;8.70;99.90;;;;;;5054414;28;20052;-73
2022/09/22 05:06:44;;;;;;;;;;;8.20;99.90;;;;;;5036842;28;20060;-73
2022/09/22 05:09:11;;;;;;;9.85;6.07;;;8.80;99.90;;;;;;5052564;28;19924;-73
2022/09/22 05:11:39;;;;;;;14.93;6.28;;;8.80;99.90;;;;;;5036819;28;20056;-73
2022/09/22 05:14:07;;;;;;;9.60;5.95;;;8.80;99.90;;;;;;5052081;28;20048;-73
2022/09/22 05:16:34;;;;;;;8.27;5.75;;;8.80;99.90;;;;;;5037373;28;20057;-73
2022/09/22 05:19:02;;;;;;;8.35;5.40;;;8.70;99.90;;;;;;5057750;28;20467;-74
2022/09/22 05:21:30;;;;;;;9.05;5.22;;;8.80;99.90;;;;;;5056541;28;20360;-73
2022/09/22 05:23:58;;;;;;;8.98;4.90;;;7.30;99.90;;;;;;5057711;28;20464;-74
2022/09/22 05:26:26;;;;;;;9.05;4.90;;;8.80;99.90;;;;;;5057437;28;20041;-74
2022/09/22 05:28:53;;;;;;;8.00;5.22;;;8.80;99.90;;;;;;5038782;28;20048;-73
2022/09/22 05:31:20;;;;;;;10.73;5.28;;;8.80;99.90;;;;;;5057576;28;20041;-73
2022/09/22 05:33:48;;;;;;;8.10;5.35;;;8.80;99.90;;;;;;5056680;28;20060;-73
2022/09/22 05:36:16;;;;;;;7.03;4.90;;;8.80;99.90;;;;;;5057384;28;20447;-73
2022/09/22 05:38:43;;;;;;;8.32;5.18;;;8.80;99.90;;;;;;5057531;28;20056;-74
2022/09/22 05:41:11;;;;;;;8.88;5.30;;;8.80;99.90;;;;;;5038594;28;20059;-73
2022/09/22 05:43:38;;;;;;;8.45;5.25;;;8.80;99.90;;;;;;5039829;28;20379;-73
2022/09/22 05:46:06;;;;;;;11.25;4.53;;;8.70;99.90;;;;;;5057299;28;20068;-73
2022/09/22 05:48:34;;;;;;;7.15;4.40;;;9.20;99.90;;;;;;5056129;28;20364;-73
2022/09/22 05:51:02;;;;;;;13.55;5.40;;;8.70;99.90;;;;;;5057026;28;20056;-73
2022/09/22 05:53:29;;;;;;;10.15;5.05;;;8.70;99.90;;;;;;5022918;28;20376;-73
2022/09/22 05:55:58;;;;;;;10.00;4.47;;;8.70;99.90;;;;;;5055995;28;20525;-74
2022/09/22 05:58:26;;;;;;;9.48;4.80;;;8.80;99.90;;;;;;5056824;28;20049;-74
2022/09/22 06:00:56;;;;;;;8.50;4.75;;;8.70;99.90;;;;;;5056077;28;20045;-73
2022/09/22 06:03:24;;;;;;;7.78;5.35;;;8.70;99.90;;;;;;5039369;28;20041;-73
2022/09/22 06:05:52;;;;;;;9.05;5.38;;;10.70;99.90;;;;;;5039094;28;20053;-73
2022/09/22 06:08:19;;;;;;;11.30;5.18;;;8.80;99.90;;;;;;5055670;28;20063;-73
2022/09/22 06:10:50;;;;;;;11.05;5.07;;;8.80;99.90;;;;;;5022828;28;20056;-73
2022/09/22 06:13:17;;;;;;;11.05;5.30;;;8.80;99.90;;;;;;5057032;28;20494;-73
2022/09/22 06:15:47;;;;;;;12.73;5.10;;;8.80;99.90;;;;;;5055548;28;20055;-74
2022/09/22 06:18:19;;;;;;;8.55;5.50;;;9.30;99.90;;;;;;5056562;28;20067;-73
2022/09/22 06:20:55;;;;;;;11.30;5.18;;;8.90;99.90;;;;;;5039181;28;20463;-73
2022/09/22 06:23:24;;;;;;;16.65;5.43;;;8.90;99.90;;;;;;5056547;28;20182;-73
2022/09/22 06:25:57;;;;;;;6.75;4.53;;;8.90;99.90;;;;;;5056260;28;20112;-73
2022/09/22 06:28:27;;;;;;;8.75;4.70;;;9.20;99.90;;;;;;5036089;28;20037;-73
2022/09/22 06:30:59;;;;;;;9.55;4.65;;;9.00;99.90;;;;;;5038741;28;20048;-73
2022/09/22 06:33:28;;;;;;;12.38;5.28;;;9.00;99.90;;;;;;5056665;28;20464;-73
2022/09/22 06:35:57;;;;;;;9.40;4.70;;;9.10;99.90;;;;;;5054558;28;20494;-73
2022/09/22 06:38:24;;;;;;;9.88;4.65;;;9.10;99.90;;;;;;5055580;28;20049;-73
2022/09/22 06:40:57;;;;;;;10.07;4.32;;;9.40;99.90;;;;;;5037556;28;20049;-73
2022/09/22 06:43:24;;;;;;;9.85;4.65;;;9.20;99.90;;;;;;5039065;28;20041;-73
2022/09/22 06:45:52;;;;;;;9.85;4.25;;;9.20;99.90;;;;;;5056476;28;20364;-73
2022/09/22 06:48:23;;;;;;;7.72;4.22;;;9.30;99.90;;;;;;5037571;28;20044;-73
2022/09/22 06:50:52;;;;;;;9.75;4.50;;;9.30;99.90;;;;;;5056247;28;20045;-73
2022/09/22 06:53:20;;;;;;;14.02;4.50;;;9.40;99.90;;;;;;5055560;28;20063;-73
2022/09/22 06:55:52;;;;;;;12.38;4.28;;;9.50;99.90;;;;;;5054743;28;20045;-73
2022/09/22 06:58:21;;;;;;;6.88;4.20;;;9.50;99.90;;;;;;5038744;28;20075;-73
2022/09/22 07:00:49;;;;;;;12.07;4.93;;;9.60;99.90;;;;;;5054698;28;20463;-73
2022/09/22 07:03:21;;;;;;;;;;;10.80;99.90;;;;;;5056081;28;20053;-73
2022/09/22 07:06:01;;;;;;;11.65;5.93;;;9.70;99.90;;;;;;5037551;28;19920;-74
2022/09/22 07:08:32;;;;;;;9.68;4.93;;;9.30;99.90;;;;;;5036947;28;20045;-73
2022/09/22 07:11:02;;;;;;;10.68;5.07;;;9.90;99.90;;;;;;5037677;28;20475;-73
2022/09/22 07:13:31;;;;;;;13.27;4.82;;;11.50;99.90;;;;;;5055199;28;20041;-73
2022/09/22 07:16:10;;;;;;;11.02;5.30;;;10.00;99.90;;;;;;5054055;28;20049;-73
2022/09/22 07:18:40;;;;;;;10.23;5.20;;;10.10;99.90;;;;;;5037462;28;20057;-73
2022/09/22 07:21:11;;;;;;;9.18;4.95;;;10.10;99.90;;;;;;5053719;28;20048;-73
2022/09/22 07:23:39;;;;;;;7.75;4.85;;;11.30;99.90;;;;;;5037548;28;20371;-74
2022/09/22 07:26:11;;;;;;;11.30;4.43;;;10.40;99.90;;;;;;5037782;28;20049;-73
2022/09/22 07:28:39;;;;;;;8.48;4.45;;;10.40;99.90;;;;;;5053940;28;20368;-73
2022/09/22 07:31:08;;;;;;;;;;;10.70;99.90;;;;;;5037857;28;20041;-73
2022/09/22 07:33:37;;;;;;;9.50;3.60;;;10.50;99.90;;;;;;5054710;28;19921;-73
2022/09/22 07:36:13;;;;;;;9.85;4.25;;;10.50;99.90;;;;;;5053698;28;20049;-72
2022/09/22 07:38:43;;;;;;;9.77;4.50;;;10.60;99.90;;;;;;5054799;28;20072;-72
2022/09/22 07:41:13;;;;;;;10.35;4.50;;;10.70;99.90;;;;;;5052798;28;20049;-73
2022/09/22 07:43:41;;;;;;;15.35;5.07;;;10.80;99.90;;;;;;5036974;28;20049;-73
2022/09/22 07:46:08;;;;;;;;;;;10.80;99.90;;;;;;5055049;28;20053;-73
2022/09/22 07:48:36;;;;;;;12.98;5.35;;;10.90;99.90;;;;;;5053291;28;19928;-72
2022/09/22 07:51:09;;;;;;;13.23;5.13;;;11.00;99.90;;;;;;5037170;28;20048;-73
2022/09/22 07:53:44;;;;;;;9.75;5.07;;;11.00;99.90;;;;;;5054676;28;20056;-73
2022/09/22 07:56:15;;;;;;;12.27;5.20;;;11.10;99.90;;;;;;5037037;28;20045;-74
2022/09/22 07:58:49;;;;;;;11.25;5.38;;;11.20;99.90;;;;;;5054573;28;20051;-72
2022/09/22 08:01:18;;;;;;;9.48;5.32;;;11.20;99.90;;;;;;5035991;28;20076;-74
2022/09/22 08:03:46;;;;;;;13.13;6.03;;;11.30;99.90;;;;;;5054468;28;20040;-73
2022/09/22 08:06:17;;;;;;;12.02;6.00;;;11.40;99.90;;;;;;5050181;28;20053;-75
2022/09/22 08:08:48;;;;;;;13.70;5.93;;;11.50;99.90;;;;;;5050880;28;20044;-76
2022/09/22 08:11:18;;;;;;;14.70;6.13;;;11.60;99.90;;;;;;5023003;28;20033;-72
2022/09/22 08:14:00;;;;;;;14.20;6.20;;;11.70;99.90;;;;;;5036952;28;20049;-73
2022/09/22 08:16:30;;;;;;;17.67;6.70;;;11.90;99.90;;;;;;5044653;28;20368;-76
2022/09/22 08:19:09;;;;;;;21.35;7.20;;;12.00;99.90;;;;;;5036876;28;20057;-72
2022/09/22 08:21:39;;;;;;;20.60;6.95;;;12.10;99.90;;;;;;5036578;28;20475;-72
2022/09/22 08:24:20;;;;;;;14.73;7.00;;;12.30;99.90;;;;;;5021370;28;20498;-73
2022/09/22 08:26:49;;;;;;;16.85;6.30;;;12.50;99.90;;;;;;5037052;28;20045;-73
2022/09/22 08:29:16;;;;;;;16.67;6.10;;;12.60;99.90;;;;;;5035961;28;20387;-74
2022/09/22 08:31:45;;;;;;;13.18;5.50;;;12.80;99.90;;;;;;5054290;28;20049;-74
2022/09/22 08:34:15;;;;;;;19.52;5.70;;;12.90;99.90;;;;;;5036378;28;20379;-74
2022/09/22 08:36:45;;;;;;;19.45;6.10;;;13.40;99.90;;;;;;5034365;28;20056;-72
2022/09/22 08:39:13;;;;;;;11.75;4.88;;;13.30;99.90;;;;;;5045692;28;20045;-73
2022/09/22 08:41:46;;;;;;;10.52;4.63;;;13.40;99.90;;;;;;5052885;28;20041;-73
2022/09/22 08:44:24;;;;;;;24.27;7.18;;;13.60;99.90;;;;;;5053008;28;20045;-72
2022/09/22 08:46:55;;;;;;;14.90;5.85;;;13.80;99.90;;;;;;5054666;28;20041;-73
2022/09/22 08:52:37;;;;;;;13.23;4.88;;;14.00;99.90;;;;;;5056023;28;20052;-72
2022/09/22 08:55:16;;;;;;;11.10;4.45;;;14.20;99.90;;;;;;5056866;28;20053;-73
2022/09/22 08:58:08;;;;;;;10.80;4.03;;;14.40;99.90;;;;;;5040567;28;20055;-72
2022/09/22 09:00:39;;;;;;;15.48;4.00;;;14.60;99.90;;;;;;5057089;28;20045;-73
2022/09/22 09:03:42;;;;;;;9.35;3.35;;;14.70;99.90;;;;;;5058637;28;20041;-73
2022/09/22 09:06:51;;;;;;;11.38;3.40;;;14.80;99.90;;;;;;5057067;28;20325;-72
2022/09/22 09:09:37;;;;;;;9.40;2.95;;;14.90;99.90;;;;;;5018727;28;20072;-72
2022/09/22 09:12:23;;;;;;;9.48;2.55;;;15.00;99.90;;;;;;5057533;28;20056;-72
2022/09/22 09:15:25;;;;;;;10.98;2.60;;;15.10;99.90;;;;;;5038965;28;20056;-72
2022/09/22 09:17:58;;;;;;;9.02;2.65;;;15.10;99.90;;;;;;5040096;28;20049;-72
2022/09/22 09:20:37;;;;;;;10.45;2.80;;;15.20;99.90;;;;;;5057120;28;20063;-72
2022/09/22 09:23:19;;;;;;;6.72;2.40;;;15.30;99.90;;;;;;5039955;28;20056;-73
2022/09/22 09:25:54;;;;;;;13.65;2.60;;;15.50;99.90;;;;;;5057223;28;20037;-72
2022/09/22 09:28:30;;;;;;;10.57;2.83;;;15.60;99.90;;;;;;5056373;28;20060;-73
2022/09/22 09:31:07;;;;;;;14.85;2.78;;;15.70;99.90;;;;;;5039826;28;20037;-73
2022/09/22 09:33:45;;;;;;;7.97;2.10;;;15.80;99.90;;;;;;5056988;28;20052;-73
2022/09/22 09:36:15;;;;;;;;;;;15.90;99.90;;;;;;5057560;28;20064;-73
2022/09/22 09:38:51;;;;;;;6.28;2.28;;;16.00;99.90;;;;;;5057365;28;19920;-72
2022/09/22 09:41:23;;;;;;;8.60;2.60;;;16.10;99.90;;;;;;5056308;28;20052;-73
2022/09/22 09:43:53;;;;;;;8.95;2.25;;;16.20;99.90;;;;;;5056856;28;20049;-72
2022/09/22 09:46:38;;;;;;;6.05;2.47;;;16.30;99.90;;;;;;5056831;28;20053;-73
2022/09/22 09:49:18;;;;;;;12.35;3.13;;;16.30;99.90;;;;;;5055540;28;20048;-73
2022/09/22 09:51:51;;;;;;;10.20;2.67;;;16.40;99.90;;;;;;5039437;28;20045;-73
2022/09/22 09:54:19;;;;;;;8.50;2.50;;;16.60;99.90;;;;;;5038288;28;20061;-73
2022/09/22 09:57:05;;;;;;;;;;;16.60;99.90;;;;;;5057012;28;20049;-73
2022/09/22 10:02:28;;;;;;;11.68;2.47;;;16.80;99.90;;;;;;5055289;28;20060;-73
2022/09/22 10:05:00;;;;;;;6.38;2.40;;;16.90;99.90;;;;;;5055614;28;20041;-72
2022/09/22 10:07:40;;;;;;;9.32;2.35;;;17.00;99.90;;;;;;5055361;28;20052;-73
2022/09/22 10:10:37;;;;;;;8.50;2.05;;;17.00;99.90;;;;;;5035855;28;20044;-74
2022/09/22 10:13:04;;;;;;;10.00;2.30;;;17.10;99.90;;;;;;5040737;28;20049;-74
2022/09/22 10:15:37;;;;;;;8.07;2.40;;;17.10;99.90;;;;;;5018321;28;20056;-74
2022/09/22 10:18:23;;;;;;;10.93;2.33;;;17.20;99.90;;;;;;5035767;28;20041;-75
2022/09/22 10:21:15;;;;;;;6.90;2.20;;;17.20;99.80;;;;;;5038194;28;20048;-75
2022/09/22 10:23:47;;;;;;;7.68;2.10;;;17.30;99.30;;;;;;5056589;28;20044;-74
2022/09/22 10:26:29;;;;;;;13.05;2.20;;;17.40;99.00;;;;;;5039390;28;20044;-78
2022/09/22 10:29:11;;;;;;;7.35;1.95;;;18.50;98.60;;;;;;5055312;28;20460;-75
2022/09/22 10:31:40;;;;;;;8.60;2.00;;;17.60;98.50;;;;;;5039006;28;20064;-77
2022/09/22 10:34:31;;;;;;;8.52;2.20;;;17.60;98.40;;;;;;5055229;28;20049;-75
2022/09/22 10:37:00;;;;;;;6.03;2.30;;;17.70;98.00;;;;;;5056790;28;20045;-75
2022/09/22 10:39:38;;;;;;;7.00;1.90;;;17.80;98.20;;;;;;5038671;28;20048;-76
2022/09/22 10:42:13;;;;;;;;;;;17.90;97.80;;;;;;5037481;28;20045;-75
2022/09/22 10:44:44;;;;;;;10.02;2.28;;;18.00;97.50;;;;;;5053414;28;19925;-74
2022/09/22 10:47:28;;;;;;;8.88;2.20;;;18.10;97.60;;;;;;5055024;28;20048;-74
2022/09/22 10:50:30;;;;;;;7.80;2.00;;;18.20;97.60;;;;;;5056010;28;20049;-74
2022/09/22 10:53:11;;;;;;;10.10;2.20;;;18.30;97.40;;;;;;5055647;28;20049;-75
2022/09/22 10:56:07;;;;;;;8.68;2.20;;;18.40;97.10;;;;;;5054050;28;20048;-76
2022/09/22 10:59:02;;;;;;;7.38;2.15;;;18.40;96.40;;;;;;5035661;28;20059;-75
2022/09/22 11:01:33;;;;;;;7.13;1.95;;;18.30;96.70;;;;;;5034532;28;20464;-73
2022/09/22 11:04:11;;;;;;;9.50;2.47;;;18.40;96.80;;;;;;5024860;28;20365;-75
2022/09/22 11:13:15;;;;;;;7.00;2.00;;;19.00;96.30;;;;;;5055877;28;20056;-74
2022/09/22 11:16:05;;;;;;;12.02;2.30;;;19.10;96.20;;;;;;5054798;28;20056;-74
2022/09/22 11:18:48;;;;;;;7.30;2.10;;;19.10;95.50;;;;;;5038196;28;20064;-75
2022/09/22 11:21:51;;;;;;;6.50;2.10;;;19.20;95.60;;;;;;5054213;28;20049;-75
2022/09/22 11:24:51;;;;;;;9.32;2.25;;;19.30;95.20;;;;;;5055602;28;20041;-75
2022/09/22 11:27:35;;;;;;;5.97;1.90;;;19.40;94.40;;;;;;5053994;28;20041;-75
2022/09/22 11:30:27;;;;;;;5.78;2.00;;;19.10;94.60;;;;;;5038218;28;20048;-75
2022/09/22 11:32:59;;;;;;;10.35;2.05;;;19.50;94.50;;;;;;5055112;28;20395;-75
2022/09/22 11:35:34;;;;;;;7.00;1.88;;;19.60;94.40;;;;;;5054076;28;20052;-75
2022/09/22 11:38:22;;;;;;;8.57;1.90;;;19.60;94.10;;;;;;5055410;28;20049;-75
2022/09/22 11:41:09;;;;;;;10.48;1.67;;;19.60;93.90;;;;;;5036743;28;20495;-75
2022/09/22 11:44:02;;;;;;;8.55;2.30;;;19.50;93.70;;;;;;5054959;28;20060;-75
2022/09/22 11:46:57;;;;;;;10.10;2.10;;;19.40;93.60;;;;;;5037511;28;20052;-75
2022/09/22 11:49:34;;;;;;;10.40;1.95;;;19.30;93.50;;;;;;5036307;28;20045;-74
2022/09/22 11:52:09;;;;;;;8.30;2.17;;;;;;;;;;5055164;28;20482;-75
2022/09/22 11:54:56;;;;;;;15.73;2.47;;;19.20;93.60;;;;;;5037299;28;20357;-75
2022/09/22 11:57:33;;;;;;;6.93;2.03;;;19.20;93.90;;;;;;5037564;28;20056;-75
2022/09/22 12:00:17;;;;;;;12.73;2.30;;;19.30;93.70;;;;;;5054966;28;20056;-75
2022/09/22 12:03:24;;;;;;;10.30;2.55;;;19.30;93.50;;;;;;5036540;28;20049;-74
2022/09/22 12:06:04;;;;;;;7.68;2.00;;;19.30;93.50;;;;;;4984981;28;20051;-75
2022/09/22 12:08:43;;;;;;;6.65;2.40;;;19.40;93.60;;;;;;5053948;28;20458;-74
2022/09/22 12:11:13;;;;;;;10.65;2.50;;;19.50;93.20;;;;;;5054852;28;20055;-74
2022/09/22 12:13:44;;;;;;;9.07;2.28;;;19.40;93.00;;;;;;5053522;28;20049;-75
2022/09/22 12:16:46;;;;;;;10.10;2.35;;;19.40;93.20;;;;;;5054631;28;20070;-75
2022/09/22 12:19:20;;;;;;;10.02;2.53;;;19.40;93.30;;;;;;5037505;28;20352;-75
2022/09/22 12:22:11;;;;;;;10.05;2.75;;;19.40;93.30;;;;;;5053662;28;20060;-75
2022/09/22 12:24:39;;;;;;;7.53;2.67;;;19.50;93.10;;;;;;5054461;28;20045;-75
2022/09/22 12:27:14;;;;;;;9.70;2.80;;;19.60;93.20;;;;;;5037257;28;20049;-74
2022/09/22 12:29:43;;;;;;;7.35;2.55;;;19.70;93.30;;;;;;5041678;28;20060;-75
2022/09/22 12:32:23;;;;;;;12.10;3.00;;;19.70;93.50;;;;;;5041594;28;20049;-75
2022/09/22 12:34:55;;;;;;;11.85;3.00;;;19.40;93.50;;;;;;5057405;28;20048;-75
2022/09/22 12:37:31;;;;;;;7.57;2.45;;;19.90;93.60;;;;;;5058516;28;20061;-75
2022/09/22 12:40:13;;;;;;;12.23;2.83;;;20.00;93.40;;;;;;5059164;28;20049;-75
2022/09/22 12:42:47;;;;;;;6.60;2.38;;;20.00;93.10;;;;;;5057373;28;20296;-75
2022/09/22 12:45:30;;;;;;;7.07;2.58;;;20.10;92.90;;;;;;5058232;28;20052;-74
2022/09/22 12:48:02;;;;;;;9.50;2.30;;;20.20;92.70;;;;;;5040222;28;20052;-75
2022/09/22 12:50:40;;;;;;;6.63;2.00;;;20.20;92.50;;;;;;5058709;28;20445;-75
2022/09/22 12:53:20;;;;;;;8.98;1.90;;;20.30;92.10;;;;;;5040979;28;20037;-75
2022/09/22 12:55:48;;;;;;;6.70;1.98;;;20.40;92.10;;;;;;5056985;28;20368;-75
2022/09/22 12:58:19;;;;;;;11.20;1.98;;;20.50;92.00;;;;;;5058207;28;20045;-75
2022/09/22 13:00:55;;;;;;;7.07;1.90;;;20.60;91.80;;;;;;5057512;28;20072;-75
2022/09/22 13:03:25;;;;;;;7.38;1.90;;;20.70;92.10;;;;;;5058380;28;20455;-75
2022/09/22 13:06:23;;;;;;;7.65;1.80;;;20.80;91.60;;;;;;5057909;28;20064;-75
2022/09/22 13:08:53;;;;;;;9.52;2.10;;;20.80;91.10;;;;;;5056849;28;20045;-75
2022/09/22 13:11:58;;;;;;;6.00;1.83;;;20.80;90.90;;;;;;5040509;28;20045;-75
2022/09/22 13:15:00;;;;;;;8.38;1.80;;;20.90;91.20;;;;;;5056806;28;20041;-75
2022/09/22 13:17:45;;;;;;;8.02;1.85;;;21.00;91.30;;;;;;5057766;28;20051;-75
2022/09/22 13:20:23;;;;;;;8.48;2.00;;;21.20;90.90;;;;;;5057947;28;20368;-75
2022/09/22 13:22:51;;;;;;;4.80;1.70;;;21.30;91.00;;;;;;5039515;28;20041;-75
2022/09/22 13:25:21;;;;;;;7.15;1.58;;;21.40;90.90;;;;;;5057638;28;20067;-75
2022/09/22 13:28:01;;;;;;;8.10;1.80;;;21.50;90.60;;;;;;5056876;28;20463;-75
2022/09/22 13:30:30;;;;;;;9.32;1.85;;;21.70;90.10;;;;;;5057713;28;20052;-75
2022/09/22 13:32:58;;;;;;;5.70;1.90;;;21.90;89.90;;;;;;5057352;28;20041;-75
2022/09/22 13:35:34;;;;;;;6.35;2.15;;;21.90;88.10;;;;;;5038934;28;20056;-75
2022/09/22 13:38:02;;;;;;;6.97;2.50;;;21.90;89.00;;;;;;5056560;28;20056;-75